Time;durP1;ratioP1;P1;durP2;ratioP2;P2;SDS_P1;SDS_P2;PMS_P1;PMS_P2;Temp;Humidity;BMP_temperature;BMP_pressure;BME280_temperature;BME280_humidity;BME280_pressure;Samples;Min_cycle;Max_cycle;Signal;HPM_P1;HPM_P2
2022/09/10 00:00:17;;;;;;;4.70;2.00;;;16.50;99.90;;;;;;5055391;28;20479;-48
2022/09/10 00:02:44;;;;;;;3.00;1.97;;;16.50;99.90;;;;;;5055543;28;20475;-47
2022/09/10 00:05:12;;;;;;;1.97;1.77;;;16.50;99.90;;;;;;5055670;28;20908;-52
2022/09/10 00:07:41;;;;;;;2.03;1.80;;;16.40;99.90;;;;;;5055121;28;20475;-47
2022/09/10 00:10:08;;;;;;;2.43;1.80;;;16.40;99.90;;;;;;5055671;28;20558;-47
2022/09/10 00:12:35;;;;;;;5.00;2.10;;;16.40;99.90;;;;;;5055285;28;20475;-47
2022/09/10 00:15:04;;;;;;;3.77;2.33;;;16.40;99.90;;;;;;5055649;28;20462;-54
2022/09/10 00:17:31;;;;;;;3.33;2.17;;;16.40;99.90;;;;;;5055228;28;20482;-51
2022/09/10 00:19:59;;;;;;;3.77;2.40;;;16.40;99.90;;;;;;5055645;28;20509;-51
2022/09/10 00:22:26;;;;;;;2.63;1.80;;;16.40;99.90;;;;;;5055296;28;20563;-49
2022/09/10 00:24:56;;;;;;;3.83;2.70;;;16.40;99.90;;;;;;5055286;28;20534;-48
2022/09/10 00:27:23;;;;;;;4.50;2.10;;;16.40;99.90;;;;;;5055418;28;21005;-48
2022/09/10 00:29:51;;;;;;;2.47;1.83;;;16.30;99.90;;;;;;5058335;28;20443;-45
2022/09/10 00:32:20;;;;;;;6.17;2.50;;;16.30;99.90;;;;;;5058998;28;20482;-50
2022/09/10 00:34:47;;;;;;;3.33;2.13;;;16.30;99.90;;;;;;5058998;28;20471;-48
2022/09/10 00:37:15;;;;;;;1.60;1.50;;;16.30;99.90;;;;;;5058857;28;20470;-50
2022/09/10 00:39:41;;;;;;;3.00;1.63;;;16.20;99.90;;;;;;5059042;28;20494;-46
2022/09/10 00:42:11;;;;;;;2.23;1.77;;;16.20;99.90;;;;;;5058692;28;20481;-51
2022/09/10 00:45:06;;;;;;;4.17;2.10;;;16.20;99.90;;;;;;5058727;28;20443;-43
2022/09/10 00:47:36;;;;;;;2.53;1.60;;;16.20;99.90;;;;;;5046067;28;20961;-55
2022/09/10 00:50:12;;;;;;;2.23;1.93;;;16.10;99.90;;;;;;5059237;28;20531;-50
2022/09/10 00:52:39;;;;;;;2.10;1.90;;;16.10;99.90;;;;;;5058804;28;20463;-49
2022/09/10 00:55:07;;;;;;;6.23;1.90;;;16.10;99.90;;;;;;5058865;28;20454;-48
2022/09/10 00:57:36;;;;;;;2.73;1.97;;;16.10;99.90;;;;;;5058396;28;20463;-52
2022/09/10 01:00:07;;;;;;;3.03;1.90;;;16.10;99.90;;;;;;5058695;28;20485;-53
2022/09/10 01:02:34;;;;;;;3.90;1.57;;;16.10;99.90;;;;;;5058725;28;20948;-49
2022/09/10 01:05:03;;;;;;;3.03;1.80;;;16.10;99.90;;;;;;5058863;28;20452;-46
2022/09/10 01:07:32;;;;;;;3.03;2.37;;;16.10;99.90;;;;;;5058637;28;20475;-45
2022/09/10 01:10:02;;;;;;;2.50;2.30;;;16.10;99.90;;;;;;5058251;28;20455;-48
2022/09/10 01:13:02;;;;;;;6.80;2.20;;;16.10;99.90;;;;;;5058500;28;20479;-48
2022/09/10 01:15:37;;;;;;;2.40;2.10;;;16.00;99.90;;;;;;5054412;28;20443;-50
2022/09/10 01:18:18;;;;;;;2.00;1.80;;;16.00;99.90;;;;;;5058161;28;20459;-50
2022/09/10 01:21:03;;;;;;;3.43;2.03;;;16.00;99.90;;;;;;5057823;28;20494;-53
2022/09/10 01:24:11;;;;;;;1.87;1.30;;;16.00;99.90;;;;;;5057818;28;20463;-48
2022/09/10 01:27:05;;;;;;;2.70;2.20;;;16.10;99.90;;;;;;5057986;28;20455;-43
2022/09/10 01:29:39;;;;;;;3.80;2.20;;;16.00;99.90;;;;;;5048612;28;20435;-50
2022/09/10 01:32:14;;;;;;;4.03;2.33;;;16.00;99.90;;;;;;5058138;28;20482;-47
2022/09/10 01:34:46;;;;;;;3.57;2.50;;;15.90;99.90;;;;;;5058573;28;20823;-52
2022/09/10 01:37:20;;;;;;;3.40;2.47;;;15.90;99.90;;;;;;5057791;28;20460;-50
2022/09/10 01:39:48;;;;;;;2.60;2.03;;;15.90;99.90;;;;;;5057466;28;20800;-49
2022/09/10 01:42:15;;;;;;;3.47;2.07;;;15.90;99.90;;;;;;5057891;28;20475;-49
2022/09/10 01:44:46;;;;;;;4.17;2.27;;;15.90;99.90;;;;;;5057458;28;20841;-47
2022/09/10 01:47:20;;;;;;;2.23;1.93;;;15.90;99.90;;;;;;5058008;28;20559;-52
2022/09/10 01:50:01;;;;;;;3.70;2.00;;;15.90;99.90;;;;;;5058060;28;20442;-49
2022/09/10 01:52:36;;;;;;;2.93;2.63;;;16.00;99.90;;;;;;5058058;28;20471;-53
2022/09/10 01:55:12;;;;;;;3.13;2.83;;;15.90;99.90;;;;;;5057915;28;20533;-51
2022/09/10 01:57:47;;;;;;;4.03;3.63;;;15.90;99.90;;;;;;5057391;28;20974;-52
2022/09/10 02:00:18;;;;;;;9.10;5.10;;;15.90;99.90;;;;;;5057646;28;20483;-53
2022/09/10 02:02:49;;;;;;;11.80;5.00;;;15.90;99.90;;;;;;5057805;28;20471;-50
2022/09/10 02:05:18;;;;;;;7.10;4.53;;;15.90;99.90;;;;;;5057737;28;20444;-51
2022/09/10 02:07:47;;;;;;;9.40;4.43;;;15.90;99.90;;;;;;5057380;28;20553;-47
2022/09/10 02:10:15;;;;;;;8.90;4.43;;;15.80;99.90;;;;;;5057242;28;20958;-50
2022/09/10 02:12:42;;;;;;;4.97;3.83;;;15.80;99.90;;;;;;5057342;28;20766;-51
2022/09/10 02:15:13;;;;;;;6.10;4.17;;;15.80;99.90;;;;;;5057117;28;20453;-48
2022/09/10 02:17:42;;;;;;;5.03;4.10;;;15.70;99.90;;;;;;5057258;28;20471;-52
2022/09/10 02:20:13;;;;;;;8.40;3.30;;;15.70;99.90;;;;;;5057086;28;20463;-53
2022/09/10 02:22:43;;;;;;;7.10;3.20;;;15.70;99.90;;;;;;5056847;28;20478;-50
2022/09/10 02:25:11;;;;;;;8.83;3.20;;;15.70;99.90;;;;;;5057412;28;20542;-53
2022/09/10 02:27:38;;;;;;;10.23;4.50;;;15.60;99.90;;;;;;5057033;28;20976;-53
2022/09/10 02:30:06;;;;;;;5.03;2.47;;;15.60;99.90;;;;;;5057462;28;20428;-52
2022/09/10 02:32:33;;;;;;;3.50;2.30;;;15.60;99.90;;;;;;5056422;28;20486;-45
2022/09/10 02:35:06;;;;;;;2.50;1.93;;;15.70;99.90;;;;;;5057282;28;20447;-45
2022/09/10 02:37:33;;;;;;;3.80;2.37;;;15.70;99.90;;;;;;5057241;28;20455;-47
2022/09/10 02:40:03;;;;;;;6.50;2.70;;;15.70;99.90;;;;;;5056957;28;20483;-45
2022/09/10 02:42:32;;;;;;;4.70;1.87;;;15.60;99.90;;;;;;5057111;28;20517;-44
2022/09/10 02:44:59;;;;;;;2.47;2.00;;;15.60;99.90;;;;;;5057240;28;20451;-51
2022/09/10 02:47:25;;;;;;;2.67;2.47;;;15.60;99.90;;;;;;5056714;28;20470;-50
2022/09/10 02:49:52;;;;;;;2.07;1.80;;;15.60;99.90;;;;;;5057056;28;20446;-50
2022/09/10 02:52:20;;;;;;;3.93;3.07;;;15.60;99.90;;;;;;5056079;28;20447;-51
2022/09/10 02:54:49;;;;;;;2.73;2.27;;;15.60;99.90;;;;;;5057227;28;20524;-46
2022/09/10 02:57:16;;;;;;;2.30;2.10;;;15.60;99.90;;;;;;5057184;28;20894;-50
2022/09/10 02:59:42;;;;;;;2.83;2.23;;;15.60;99.90;;;;;;5056911;28;20483;-51
2022/09/10 03:02:09;;;;;;;2.97;2.33;;;15.50;99.90;;;;;;5056731;28;20443;-51
2022/09/10 03:04:36;;;;;;;3.20;2.10;;;15.50;99.90;;;;;;5056584;28;20528;-54
2022/09/10 03:07:03;;;;;;;2.83;2.50;;;15.50;99.90;;;;;;5056551;28;20463;-48
2022/09/10 03:09:31;;;;;;;6.03;2.37;;;15.50;99.90;;;;;;5056438;28;20936;-53
2022/09/10 03:11:58;;;;;;;2.60;2.10;;;15.50;99.90;;;;;;5056519;28;20448;-50
2022/09/10 03:14:27;;;;;;;2.33;2.13;;;15.50;99.90;;;;;;5056325;28;20521;-51
2022/09/10 03:16:55;;;;;;;4.80;2.37;;;15.40;99.90;;;;;;5056527;28;20774;-51
2022/09/10 03:19:23;;;;;;;2.20;2.00;;;15.30;99.90;;;;;;5056424;28;20479;-47
2022/09/10 03:21:53;;;;;;;2.60;1.90;;;15.30;99.90;;;;;;5056108;28;20566;-52
2022/09/10 03:24:21;;;;;;;1.90;1.77;;;15.40;99.90;;;;;;5056509;28;20932;-52
2022/09/10 03:26:49;;;;;;;1.90;1.77;;;15.30;99.90;;;;;;5056866;28;20456;-45
2022/09/10 03:29:16;;;;;;;2.50;1.60;;;15.30;99.90;;;;;;5056181;28;20477;-52
2022/09/10 03:31:45;;;;;;;3.83;2.00;;;15.30;99.90;;;;;;5056794;28;20470;-48
2022/09/10 03:34:13;;;;;;;2.23;2.03;;;15.30;99.90;;;;;;5056811;28;20565;-48
2022/09/10 03:36:40;;;;;;;7.33;2.70;;;15.20;99.90;;;;;;5056414;28;20443;-52
2022/09/10 03:39:09;;;;;;;3.93;2.10;;;15.20;99.90;;;;;;5056537;28;20475;-50
2022/09/10 03:41:36;;;;;;;3.93;2.20;;;15.20;99.90;;;;;;5056516;28;20865;-50
2022/09/10 03:44:05;;;;;;;2.73;1.73;;;15.20;99.90;;;;;;5055767;28;20582;-52
2022/09/10 03:46:31;;;;;;;6.27;2.03;;;15.10;99.90;;;;;;5054642;28;20558;-46
2022/09/10 03:49:00;;;;;;;3.13;2.50;;;15.10;99.90;;;;;;5055035;28;20475;-58
2022/09/10 03:51:28;;;;;;;3.33;1.83;;;15.10;99.90;;;;;;5058140;28;20447;-47
2022/09/10 03:53:55;;;;;;;3.20;2.40;;;15.10;99.90;;;;;;5056707;28;20482;-46
2022/09/10 03:56:22;;;;;;;2.37;2.17;;;15.00;99.90;;;;;;5055193;28;20463;-48
2022/09/10 03:58:49;;;;;;;4.20;2.70;;;15.00;99.90;;;;;;5054490;28;20474;-45
2022/09/10 04:01:17;;;;;;;3.43;2.40;;;15.00;99.90;;;;;;5054524;28;20483;-51
2022/09/10 04:03:44;;;;;;;4.10;2.10;;;15.00;99.90;;;;;;5060349;28;20471;-52
2022/09/10 04:06:12;;;;;;;6.00;1.87;;;15.00;99.90;;;;;;5058403;28;20447;-47
2022/09/10 04:08:38;;;;;;;2.87;2.13;;;15.00;99.90;;;;;;5058330;28;20471;-46
2022/09/10 04:11:06;;;;;;;4.20;1.90;;;15.00;99.90;;;;;;5058449;28;20419;-50
2022/09/10 04:13:33;;;;;;;2.10;1.90;;;15.00;99.90;;;;;;5058333;28;20467;-46
2022/09/10 04:16:00;;;;;;;2.57;2.20;;;14.90;99.90;;;;;;5058428;28;20427;-49
2022/09/10 04:18:30;;;;;;;2.40;2.10;;;15.00;99.90;;;;;;5057622;28;20474;-48
2022/09/10 04:20:57;;;;;;;3.13;2.23;;;14.90;99.90;;;;;;5057780;28;20694;-45
2022/09/10 04:23:24;;;;;;;7.57;2.43;;;14.90;99.90;;;;;;5058132;28;20471;-48
2022/09/10 04:25:51;;;;;;;4.73;2.20;;;14.90;99.90;;;;;;5058305;28;20447;-45
2022/09/10 04:28:18;;;;;;;4.43;2.43;;;14.90;99.90;;;;;;5058143;28;20761;-45
2022/09/10 04:30:45;;;;;;;2.00;1.80;;;14.90;99.90;;;;;;5058159;28;20424;-50
2022/09/10 04:33:12;;;;;;;4.50;3.07;;;14.90;99.90;;;;;;5058732;28;20537;-44
2022/09/10 04:35:41;;;;;;;5.67;2.50;;;14.90;99.90;;;;;;5058069;28;20430;-44
2022/09/10 04:38:08;;;;;;;3.50;2.93;;;14.90;99.90;;;;;;5058029;28;20460;-47
2022/09/10 04:40:37;;;;;;;2.57;2.03;;;14.80;99.90;;;;;;5058149;28;20482;-45
2022/09/10 04:43:03;;;;;;;2.60;2.33;;;14.80;99.90;;;;;;5058588;28;20443;-47
2022/09/10 04:45:33;;;;;;;2.27;2.07;;;14.80;99.90;;;;;;5059629;28;20453;-45
2022/09/10 04:48:00;;;;;;;4.50;2.07;;;14.80;99.90;;;;;;5058022;28;20451;-47
2022/09/10 04:50:27;;;;;;;3.97;2.10;;;14.80;99.90;;;;;;5058159;28;20443;-49
2022/09/10 04:52:55;;;;;;;3.37;2.13;;;14.80;99.90;;;;;;5058079;28;20544;-49
2022/09/10 04:55:22;;;;;;;3.97;2.63;;;14.80;99.90;;;;;;5057894;28;20447;-46
2022/09/10 04:57:48;;;;;;;4.67;2.10;;;14.80;99.90;;;;;;5058241;28;20443;-48
2022/09/10 05:00:16;;;;;;;2.80;2.50;;;14.80;99.90;;;;;;5058241;28;20482;-45
2022/09/10 05:02:43;;;;;;;3.97;2.60;;;14.80;99.90;;;;;;5059173;28;20447;-44
2022/09/10 05:05:09;;;;;;;2.90;2.53;;;14.80;99.90;;;;;;5057643;28;20487;-46
2022/09/10 05:07:36;;;;;;;5.33;2.43;;;14.80;99.90;;;;;;5057962;28;20450;-48
2022/09/10 05:10:05;;;;;;;3.70;2.73;;;14.90;99.90;;;;;;5058428;28;20475;-46
2022/09/10 05:12:32;;;;;;;2.80;2.40;;;14.80;99.90;;;;;;5057076;28;20458;-42
2022/09/10 05:14:59;;;;;;;5.50;2.50;;;14.80;99.90;;;;;;5056318;28;20478;-44
2022/09/10 05:17:26;;;;;;;3.30;2.43;;;14.80;99.90;;;;;;5057270;28;20458;-47
2022/09/10 05:19:52;;;;;;;5.03;2.33;;;14.70;99.90;;;;;;5058662;28;20544;-49
2022/09/10 05:22:20;;;;;;;5.27;2.73;;;14.80;99.90;;;;;;5057235;28;20467;-48
2022/09/10 05:24:47;;;;;;;4.00;2.50;;;14.80;99.90;;;;;;5056979;28;20510;-47
2022/09/10 05:27:15;;;;;;;4.50;2.80;;;14.80;99.90;;;;;;5056999;28;20439;-48
2022/09/10 05:29:42;;;;;;;4.20;2.97;;;14.70;99.90;;;;;;5057759;28;20536;-53
2022/09/10 05:32:09;;;;;;;2.27;1.93;;;14.80;99.90;;;;;;5059676;28;20447;-53
2022/09/10 05:34:38;;;;;;;3.73;2.53;;;14.70;99.90;;;;;;5060059;28;20478;-49
2022/09/10 05:37:07;;;;;;;2.73;2.07;;;14.80;99.90;;;;;;5057932;28;20464;-45
2022/09/10 05:39:34;;;;;;;4.00;3.20;;;14.80;99.90;;;;;;5057166;28;20470;-45
2022/09/10 05:42:01;;;;;;;5.17;2.53;;;14.80;99.90;;;;;;5056643;28;20486;-44
2022/09/10 05:44:29;;;;;;;5.03;2.90;;;14.80;99.90;;;;;;5056479;28;20481;-49
2022/09/10 05:46:56;;;;;;;5.37;2.70;;;14.90;99.90;;;;;;5056885;28;20738;-51
2022/09/10 05:49:22;;;;;;;2.53;2.30;;;14.90;99.90;;;;;;5056530;28;20569;-46
2022/09/10 05:51:49;;;;;;;3.23;2.20;;;14.90;99.90;;;;;;5056465;28;20447;-45
2022/09/10 05:54:16;;;;;;;3.30;2.70;;;15.00;99.90;;;;;;5056524;28;20471;-44
2022/09/10 05:56:45;;;;;;;3.57;2.87;;;15.00;99.90;;;;;;5056920;28;20431;-46
2022/09/10 05:59:12;;;;;;;2.03;1.90;;;15.00;99.90;;;;;;5059962;28;20803;-50
2022/09/10 06:01:40;;;;;;;2.57;1.70;;;15.10;99.90;;;;;;5057529;28;20471;-46
2022/09/10 06:04:07;;;;;;;6.23;2.00;;;15.10;99.90;;;;;;5056260;28;20447;-44
2022/09/10 06:06:34;;;;;;;2.70;1.77;;;15.10;99.90;;;;;;5056770;28;20874;-49
2022/09/10 06:09:01;;;;;;;6.50;2.17;;;15.10;99.90;;;;;;5056263;28;20868;-45
2022/09/10 06:11:28;;;;;;;2.70;1.80;;;15.20;99.90;;;;;;5056090;28;20471;-48
2022/09/10 06:13:54;;;;;;;7.20;2.27;;;15.20;99.90;;;;;;5058665;28;20465;-49
2022/09/10 06:16:21;;;;;;;2.43;1.90;;;15.20;99.90;;;;;;5056317;28;20769;-50
2022/09/10 06:18:49;;;;;;;4.10;2.60;;;15.30;99.90;;;;;;5056126;28;20470;-43
2022/09/10 06:21:18;;;;;;;3.40;2.20;;;15.40;99.90;;;;;;5056160;28;20804;-44
2022/09/10 06:23:46;;;;;;;3.20;2.10;;;15.40;99.90;;;;;;5056517;28;20453;-46
2022/09/10 06:26:15;;;;;;;7.10;4.53;;;15.40;99.90;;;;;;5058505;28;20447;-47
2022/09/10 06:28:43;;;;;;;5.53;2.80;;;15.50;99.90;;;;;;5055883;28;20784;-46
2022/09/10 06:31:16;;;;;;;6.43;1.97;;;15.60;99.90;;;;;;5055785;28;20542;-43
2022/09/10 06:33:43;;;;;;;3.97;2.33;;;15.60;99.90;;;;;;5056989;28;20458;-48
2022/09/10 06:36:11;;;;;;;3.70;2.00;;;15.70;99.90;;;;;;5055820;28;20490;-47
2022/09/10 06:38:38;;;;;;;2.90;1.80;;;15.70;99.90;;;;;;5055837;28;20446;-48
2022/09/10 06:41:07;;;;;;;2.67;1.67;;;15.70;99.90;;;;;;5055619;28;20566;-50
2022/09/10 06:43:36;;;;;;;2.47;2.10;;;15.80;99.90;;;;;;5055637;28;20828;-46
2022/09/10 06:46:08;;;;;;;2.20;1.77;;;15.90;99.90;;;;;;5058436;28;20451;-46
2022/09/10 06:48:39;;;;;;;3.00;1.97;;;15.90;99.90;;;;;;5055677;28;20435;-48
2022/09/10 06:51:08;;;;;;;4.40;3.07;;;15.90;99.90;;;;;;5056061;28;20474;-47
2022/09/10 06:53:37;;;;;;;2.23;1.90;;;16.00;99.90;;;;;;5055369;28;20462;-46
2022/09/10 06:56:07;;;;;;;3.23;1.90;;;16.10;99.90;;;;;;5055294;28;20451;-50
2022/09/10 06:58:34;;;;;;;5.57;2.00;;;16.10;99.90;;;;;;5055050;28;20877;-45
2022/09/10 07:01:07;;;;;;;3.17;1.83;;;16.20;99.90;;;;;;5055344;28;20489;-49
2022/09/10 07:03:34;;;;;;;3.20;2.17;;;16.30;99.90;;;;;;5055526;28;20497;-54
2022/09/10 07:06:03;;;;;;;4.40;1.90;;;16.30;99.90;;;;;;5055890;28;20737;-44
2022/09/10 07:08:30;;;;;;;2.10;1.87;;;16.40;99.90;;;;;;5055872;28;20463;-50
2022/09/10 07:11:02;;;;;;;5.20;2.37;;;16.50;99.90;;;;;;5056224;28;20604;-49
2022/09/10 07:13:29;;;;;;;2.63;2.10;;;16.60;99.90;;;;;;5055174;28;20840;-48
2022/09/10 07:15:56;;;;;;;1.93;1.40;;;16.60;99.90;;;;;;5056071;28;20482;-43
2022/09/10 07:18:27;;;;;;;2.17;1.90;;;16.80;99.90;;;;;;5055287;28;20443;-45
2022/09/10 07:20:54;;;;;;;2.30;1.80;;;16.80;99.90;;;;;;5055328;28;20893;-43
2022/09/10 07:23:22;;;;;;;3.10;1.50;;;16.90;99.90;;;;;;5055342;28;20465;-45
2022/09/10 07:25:49;;;;;;;4.17;2.20;;;17.00;99.90;;;;;;5055394;28;20577;-44
2022/09/10 07:28:19;;;;;;;2.67;1.73;;;17.00;99.90;;;;;;5055591;28;20926;-46
2022/09/10 07:30:46;;;;;;;2.33;1.80;;;17.10;99.90;;;;;;5055422;28;20471;-49
2022/09/10 07:33:13;;;;;;;4.50;2.43;;;17.20;99.90;;;;;;5054751;28;20455;-51
2022/09/10 07:35:40;;;;;;;2.70;1.90;;;17.20;99.90;;;;;;5054694;28;20467;-48
2022/09/10 07:38:14;;;;;;;3.30;2.03;;;17.30;99.90;;;;;;5057292;28;20450;-50
2022/09/10 07:40:42;;;;;;;2.57;1.80;;;17.40;99.90;;;;;;5058678;28;20808;-45
2022/09/10 07:43:09;;;;;;;2.43;1.60;;;17.50;99.90;;;;;;5060571;28;20549;-45
2022/09/10 07:45:37;;;;;;;3.43;1.67;;;17.60;99.90;;;;;;5058824;28;20943;-47
2022/09/10 07:48:04;;;;;;;1.83;1.70;;;17.60;99.90;;;;;;5058829;28;20453;-47
2022/09/10 07:50:31;;;;;;;3.80;2.00;;;17.70;99.90;;;;;;5058502;28;20471;-46
2022/09/10 07:52:58;;;;;;;2.47;2.10;;;17.80;99.90;;;;;;5058541;28;20533;-45
2022/09/10 07:55:24;;;;;;;3.03;1.47;;;17.80;99.90;;;;;;5058471;28;20477;-48
2022/09/10 07:57:51;;;;;;;3.13;2.27;;;17.90;99.90;;;;;;5058345;28;20447;-42
2022/09/10 08:00:18;;;;;;;2.37;1.67;;;18.00;99.90;;;;;;5058673;28;20959;-49
2022/09/10 08:02:46;;;;;;;3.23;1.70;;;18.10;99.90;;;;;;5058289;28;20978;-49
2022/09/10 08:05:13;;;;;;;2.50;1.63;;;18.20;99.90;;;;;;5058308;28;20769;-50
2022/09/10 08:07:41;;;;;;;3.47;1.63;;;18.40;99.90;;;;;;5058384;28;20432;-49
2022/09/10 08:10:10;;;;;;;1.93;1.20;;;18.70;99.90;;;;;;5058171;28;20471;-48
2022/09/10 08:12:37;;;;;;;2.10;1.50;;;19.50;99.90;;;;;;5057922;28;20424;-47
2022/09/10 08:15:04;;;;;;;3.50;1.40;;;21.20;99.90;;;;;;5058042;28;20451;-47
2022/09/10 08:17:32;;;;;;;3.03;1.50;;;23.40;99.90;;;;;;5057895;28;20451;-40
2022/09/10 08:20:00;;;;;;;5.57;1.67;;;25.50;99.90;;;;;;5057689;28;20446;-45
2022/09/10 08:22:27;;;;;;;6.60;4.70;;;27.20;99.90;;;;;;5057697;28;20963;-48
2022/09/10 08:24:54;;;;;;;3.73;2.20;;;29.10;98.20;;;;;;5057893;28;20750;-47
2022/09/10 08:27:21;;;;;;;3.23;1.60;;;30.90;90.40;;;;;;5057785;28;20463;-46
2022/09/10 08:29:48;;;;;;;3.80;1.80;;;32.40;75.60;;;;;;5057904;28;20473;-47
2022/09/10 08:32:14;;;;;;;4.87;2.30;;;32.90;70.30;;;;;;5057666;28;20493;-44
2022/09/10 08:34:41;;;;;;;2.80;1.60;;;33.50;63.70;;;;;;5057739;28;20770;-50
2022/09/10 08:37:09;;;;;;;2.20;1.60;;;33.60;61.30;;;;;;5057895;28;20454;-47
2022/09/10 08:39:36;;;;;;;4.00;2.00;;;33.40;60.30;;;;;;5057710;28;20439;-47
2022/09/10 08:42:07;;;;;;;2.23;1.70;;;32.80;59.70;;;;;;5059521;28;20486;-48
2022/09/10 08:44:42;;;;;;;2.80;1.67;;;32.10;61.50;;;;;;5057677;28;20435;-47
2022/09/10 08:47:21;;;;;;;2.43;1.60;;;32.10;61.00;;;;;;5057619;28;20755;-47
2022/09/10 08:49:52;;;;;;;4.13;1.27;;;32.40;60.50;;;;;;5056356;28;20435;-47
2022/09/10 08:52:28;;;;;;;1.93;1.30;;;32.80;59.30;;;;;;5057622;28;20470;-46
2022/09/10 08:54:59;;;;;;;2.20;1.20;;;33.10;59.20;;;;;;5057462;28;20435;-45
2022/09/10 08:57:32;;;;;;;4.03;1.47;;;33.30;57.90;;;;;;5057469;28;20462;-46
2022/09/10 09:00:01;;;;;;;2.57;1.20;;;33.20;58.00;;;;;;5057087;28;20535;-45
2022/09/10 09:02:34;;;;;;;2.53;1.30;;;33.30;57.50;;;;;;5057288;28;20505;-45
2022/09/10 09:05:05;;;;;;;1.70;1.60;;;33.40;56.60;;;;;;5057210;28;20430;-46
2022/09/10 09:07:38;;;;;;;2.07;1.27;;;33.50;56.40;;;;;;5057378;28;20788;-47
2022/09/10 09:10:20;;;;;;;2.20;1.30;;;33.50;56.10;;;;;;5057580;28;20514;-46
2022/09/10 09:12:59;;;;;;;1.70;1.40;;;33.40;55.90;;;;;;5058958;28;20420;-49
2022/09/10 09:15:35;;;;;;;3.20;1.63;;;33.10;55.90;;;;;;5057253;28;20443;-44
2022/09/10 09:18:16;;;;;;;2.80;1.40;;;32.60;57.20;;;;;;5057141;28;20435;-45
2022/09/10 09:20:45;;;;;;;1.30;1.13;;;32.10;57.20;;;;;;5056913;28;20454;-48
2022/09/10 09:23:20;;;;;;;3.73;1.17;;;31.80;57.90;;;;;;5056613;28;20467;-47
2022/09/10 09:25:49;;;;;;;2.80;1.60;;;31.70;58.50;;;;;;5056671;28;20498;-44
2022/09/10 09:28:24;;;;;;;2.80;1.23;;;31.80;58.50;;;;;;5056628;28;20908;-50
2022/09/10 09:30:54;;;;;;;2.80;1.40;;;31.80;58.20;;;;;;5056751;28;20557;-46
2022/09/10 09:33:23;;;;;;;2.90;1.23;;;31.80;57.70;;;;;;5056898;28;20868;-48
2022/09/10 09:35:55;;;;;;;1.57;1.20;;;31.50;58.00;;;;;;5056631;28;20475;-48
2022/09/10 09:38:26;;;;;;;3.27;1.20;;;31.50;58.20;;;;;;5056594;28;20779;-47
2022/09/10 09:40:56;;;;;;;2.20;1.00;;;31.40;58.60;;;;;;5056514;28;20798;-46
2022/09/10 09:43:41;;;;;;;1.30;1.00;;;31.10;58.80;;;;;;5057124;28;20526;-49
2022/09/10 09:46:15;;;;;;;1.43;1.00;;;31.00;59.20;;;;;;5057509;28;20550;-43
2022/09/10 09:48:43;;;;;;;2.00;1.30;;;31.40;58.10;;;;;;5056508;28;20444;-44
2022/09/10 09:51:13;;;;;;;2.70;1.07;;;31.30;58.40;;;;;;5057186;28;20562;-44
2022/09/10 09:53:41;;;;;;;2.17;1.20;;;30.80;59.50;;;;;;5057333;28;20458;-44
2022/09/10 09:56:17;;;;;;;1.50;1.10;;;30.40;59.80;;;;;;5057136;28;20447;-44
2022/09/10 09:58:48;;;;;;;1.70;1.17;;;30.40;60.50;;;;;;5057128;28;20574;-46
2022/09/10 10:01:19;;;;;;;2.00;1.40;;;30.60;59.80;;;;;;5057017;28;20475;-50
2022/09/10 10:03:57;;;;;;;1.80;1.40;;;30.70;59.80;;;;;;5057018;28;20826;-45
2022/09/10 10:06:26;;;;;;;3.73;1.20;;;30.90;59.30;;;;;;5056464;28;20471;-54
2022/09/10 10:09:05;;;;;;;4.80;1.30;;;31.00;59.50;;;;;;5056105;28;20772;-47
2022/09/10 10:11:50;;;;;;;1.57;1.10;;;30.50;59.60;;;;;;5055760;28;20509;-50
2022/09/10 10:14:36;;;;;;;2.90;1.13;;;30.10;63.50;;;;;;5055723;28;20927;-46
2022/09/10 10:17:22;;;;;;;2.93;1.57;;;30.30;62.20;;;;;;5055855;28;20467;-47
2022/09/10 10:19:58;;;;;;;1.60;1.30;;;30.60;63.50;;;;;;5055901;28;20427;-48
2022/09/10 10:22:28;;;;;;;1.27;1.10;;;30.50;60.70;;;;;;5055335;28;20486;-47
2022/09/10 10:25:00;;;;;;;4.60;1.40;;;29.90;61.40;;;;;;5055711;28;20446;-47
2022/09/10 10:27:32;;;;;;;2.17;1.53;;;28.90;63.90;;;;;;5056422;28;20563;-50
2022/09/10 10:30:07;;;;;;;2.00;1.30;;;28.10;67.40;;;;;;5055788;28;20451;-48
2022/09/10 10:32:43;;;;;;;1.57;1.13;;;27.90;68.40;;;;;;5055414;28;20480;-48
2022/09/10 10:35:32;;;;;;;7.80;1.77;;;27.60;69.80;;;;;;5055422;28;20510;-45
2022/09/10 10:38:24;;;;;;;2.77;1.53;;;28.00;69.00;;;;;;5055375;28;20475;-48
2022/09/10 10:41:04;;;;;;;2.00;1.10;;;28.20;68.70;;;;;;5055401;28;20539;-50
2022/09/10 10:43:41;;;;;;;3.30;1.60;;;27.60;69.70;;;;;;5055502;28;20517;-46
2022/09/10 10:46:16;;;;;;;2.90;1.40;;;26.80;72.30;;;;;;5055355;28;20450;-45
2022/09/10 10:48:58;;;;;;;1.90;1.40;;;25.90;76.10;;;;;;5055308;28;20442;-46
2022/09/10 10:51:38;;;;;;;1.90;1.60;;;25.10;80.50;;;;;;5056223;28;20517;-44
2022/09/10 10:54:27;;;;;;;2.10;1.50;;;24.80;85.50;;;;;;5054975;28;20431;-48
2022/09/10 10:57:08;;;;;;;2.23;1.70;;;24.60;90.20;;;;;;5054918;28;20463;-48
2022/09/10 10:59:52;;;;;;;2.53;1.50;;;24.60;92.00;;;;;;5055126;28;20423;-48
2022/09/10 11:02:26;;;;;;;5.20;1.30;;;25.10;90.50;;;;;;5054741;28;20487;-51
2022/09/10 11:04:55;;;;;;;1.97;1.20;;;25.50;88.70;;;;;;5055073;28;20431;-46
2022/09/10 11:07:29;;;;;;;1.70;1.30;;;25.90;86.10;;;;;;5055003;28;20491;-46
2022/09/10 11:10:01;;;;;;;1.73;1.17;;;26.10;85.50;;;;;;5055247;28;20431;-51
2022/09/10 11:12:33;;;;;;;2.50;1.50;;;26.20;85.30;;;;;;5054399;28;20458;-47
2022/09/10 11:15:06;;;;;;;2.10;1.33;;;26.20;85.90;;;;;;5055045;28;20971;-45
2022/09/10 11:17:39;;;;;;;1.63;1.40;;;26.10;85.80;;;;;;5054803;28;20467;-50
2022/09/10 11:20:13;;;;;;;2.60;1.20;;;25.80;85.90;;;;;;5054601;28;20435;-44
2022/09/10 11:22:45;;;;;;;2.93;1.17;;;25.60;87.30;;;;;;5054754;28;20506;-46
2022/09/10 11:25:19;;;;;;;1.93;1.10;;;25.10;87.90;;;;;;5054753;28;20451;-44
2022/09/10 11:27:51;;;;;;;3.40;1.53;;;24.60;88.80;;;;;;5054823;28;20466;-47
2022/09/10 11:30:19;;;;;;;1.60;1.20;;;24.10;91.80;;;;;;5054651;28;20438;-49
2022/09/10 11:32:53;;;;;;;1.77;1.10;;;23.90;93.50;;;;;;5054926;28;20835;-45
2022/09/10 11:35:23;;;;;;;2.53;1.40;;;23.90;94.40;;;;;;5054764;28;20435;-49
2022/09/10 11:38:03;;;;;;;2.60;1.33;;;24.20;93.60;;;;;;5054491;28;20994;-44
2022/09/10 11:40:38;;;;;;;2.30;1.30;;;24.40;93.20;;;;;;5054814;28;20440;-49
2022/09/10 11:43:12;;;;;;;2.37;1.03;;;24.40;93.70;;;;;;5054348;28;20522;-49
2022/09/10 11:45:46;;;;;;;1.93;0.90;;;24.20;93.80;;;;;;5054756;28;20711;-45
2022/09/10 11:48:19;;;;;;;2.43;1.20;;;24.00;94.00;;;;;;5054833;28;20787;-46
2022/09/10 11:50:50;;;;;;;2.43;1.30;;;24.00;94.00;;;;;;5054636;28;20428;-46
2022/09/10 11:53:19;;;;;;;2.27;1.30;;;24.00;95.30;;;;;;5055213;28;20536;-50
2022/09/10 11:56:02;;;;;;;1.93;1.63;;;24.10;95.20;;;;;;5054589;28;20440;-48
2022/09/10 11:58:39;;;;;;;4.07;1.33;;;24.20;94.10;;;;;;5054658;28;20471;-49
2022/09/10 12:01:16;;;;;;;3.10;1.20;;;24.20;95.30;;;;;;5054686;28;20478;-46
2022/09/10 12:04:13;;;;;;;4.10;1.57;;;24.00;94.40;;;;;;5054568;28;20477;-51
2022/09/10 12:06:53;;;;;;;1.40;1.17;;;23.90;95.20;;;;;;5053132;28;20731;-53
2022/09/10 12:09:25;;;;;;;4.50;1.70;;;23.70;95.90;;;;;;5054496;28;20798;-52
2022/09/10 12:12:03;;;;;;;1.57;1.07;;;23.60;96.80;;;;;;5054178;28;20428;-51
2022/09/10 12:14:31;;;;;;;1.20;1.10;;;23.70;97.40;;;;;;5054642;28;20434;-49
2022/09/10 12:17:02;;;;;;;3.37;1.37;;;23.90;97.70;;;;;;5054422;28;20471;-52
2022/09/10 12:19:32;;;;;;;1.10;0.90;;;24.10;96.40;;;;;;5054526;28;20448;-50
2022/09/10 12:22:03;;;;;;;1.83;1.07;;;24.30;96.20;;;;;;5053980;28;20908;-54
2022/09/10 12:24:33;;;;;;;1.90;1.40;;;24.40;93.70;;;;;;5057312;28;20510;-45
2022/09/10 12:27:00;;;;;;;1.37;1.10;;;24.40;93.60;;;;;;5057815;28;20500;-48
2022/09/10 12:29:33;;;;;;;2.03;1.50;;;24.40;93.80;;;;;;5058083;28;20454;-43
2022/09/10 12:32:28;;;;;;;2.77;1.60;;;24.30;95.10;;;;;;5057620;28;20428;-53
2022/09/10 12:35:44;;;;;;;1.77;1.53;;;24.30;96.80;;;;;;5058074;28;20452;-49
2022/09/10 12:38:48;;;;;;;3.00;1.57;;;24.20;97.80;;;;;;5057693;28;20466;-48
2022/09/10 12:41:47;;;;;;;2.93;1.43;;;24.40;98.10;;;;;;5057740;28;20489;-51
2022/09/10 12:44:32;;;;;;;2.43;1.40;;;24.60;98.30;;;;;;5057286;28;20478;-51
2022/09/10 12:47:38;;;;;;;3.73;1.20;;;24.90;96.60;;;;;;5057588;28;20462;-54
2022/09/10 12:50:29;;;;;;;2.23;0.93;;;24.90;95.90;;;;;;5053947;28;20507;-53
2022/09/10 12:53:22;;;;;;;2.27;1.50;;;25.10;96.10;;;;;;5057476;28;20471;-48
2022/09/10 12:56:00;;;;;;;4.17;1.80;;;25.30;95.20;;;;;;5057708;28;20489;-52
2022/09/10 12:58:38;;;;;;;2.93;1.40;;;25.50;94.20;;;;;;5057665;28;20544;-51
2022/09/10 13:01:13;;;;;;;3.00;1.40;;;25.60;93.60;;;;;;5057509;28;20423;-51
2022/09/10 13:03:50;;;;;;;2.13;1.43;;;25.60;93.40;;;;;;5056977;28;20482;-54
2022/09/10 13:06:19;;;;;;;2.20;0.90;;;25.60;92.10;;;;;;5057446;28;20450;-52
2022/09/10 13:08:47;;;;;;;5.37;1.10;;;25.30;92.40;;;;;;5057302;28;20483;-51